createdAt,value
2018-01-10T00:02:08.727Z,48.17
2018-01-10T00:04:37.112Z,51.80
2018-01-10T00:07:05.530Z,60.27
2018-01-10T00:09:33.931Z,56.20
2018-01-10T00:12:02.317Z,62.30
2018-01-10T00:14:30.742Z,58.97
2018-01-10T00:16:59.177Z,53.13
2018-01-10T00:19:27.657Z,55.20
2018-01-10T00:21:56.083Z,51.30
2018-01-10T00:24:25.315Z,56.37
2018-01-10T00:26:53.707Z,53.70
2018-01-10T00:29:22.122Z,49.70
2018-01-10T00:31:50.578Z,58.33
2018-01-10T00:34:19.025Z,52.77
2018-01-10T00:36:47.411Z,48.10
2018-01-10T00:39:15.838Z,52.47
2018-01-10T00:41:44.291Z,53.60
2018-01-10T00:44:12.732Z,54.03
2018-01-10T00:46:41.104Z,55.60
2018-01-10T00:49:10.316Z,53.33
2018-01-10T00:51:38.708Z,60.30
2018-01-10T00:54:07.166Z,59.93
2018-01-10T00:56:36.305Z,62.47
2018-01-10T00:59:04.752Z,55.80
2018-01-10T01:01:33.150Z,57.10
2018-01-10T01:04:01.567Z,52.77
2018-01-10T01:06:29.986Z,53.77
2018-01-10T01:08:58.369Z,49.47
2018-01-10T01:11:27.552Z,56.60
2018-01-10T01:13:56.778Z,51.80
2018-01-10T01:16:25.141Z,52.43
2018-01-10T01:18:54.335Z,53.60
2018-01-10T01:21:22.727Z,55.10
2018-01-10T01:23:51.142Z,54.93
2018-01-10T01:26:19.567Z,52.23
2018-01-10T01:28:48.731Z,56.60
2018-01-10T01:31:17.150Z,54.63
2018-01-10T01:33:45.540Z,54.83
2018-01-10T01:36:13.968Z,51.73
2018-01-10T01:38:42.432Z,58.83
2018-01-10T01:41:10.863Z,62.30
2018-01-10T01:43:39.302Z,51.90
2018-01-10T01:46:07.951Z,54.90
2018-01-10T01:48:36.400Z,53.73
2018-01-10T01:51:04.792Z,54.80
2018-01-10T01:53:33.368Z,53.50
2018-01-10T01:56:02.556Z,55.70
2018-01-10T01:58:30.927Z,57.00
2018-01-10T02:01:00.133Z,63.37
2018-01-10T02:03:28.590Z,52.20
2018-01-10T02:05:57.727Z,56.43
2018-01-10T02:08:26.131Z,57.07
2018-01-10T02:10:54.484Z,51.53
2018-01-10T02:13:22.947Z,51.70
2018-01-10T02:15:51.381Z,56.50
2018-01-10T02:18:19.742Z,56.53
2018-01-10T02:20:48.131Z,53.50
2018-01-10T02:23:16.556Z,50.17
2018-01-10T02:25:45.719Z,45.90
2018-01-10T02:28:14.083Z,44.87
2018-01-10T02:30:42.512Z,51.47
2018-01-10T02:33:11.740Z,52.20
2018-01-10T02:35:40.173Z,56.20
2018-01-10T02:38:08.612Z,50.67
2018-01-10T02:40:37.092Z,48.47
2018-01-10T02:43:05.559Z,48.07
2018-01-10T02:45:33.955Z,46.13
2018-01-10T02:48:02.339Z,52.90
2018-01-10T02:50:30.782Z,55.33
2018-01-10T02:52:59.212Z,52.50
2018-01-10T02:55:27.613Z,49.77
2018-01-10T02:57:56.055Z,48.33
2018-01-10T03:00:24.491Z,43.40
2018-01-10T03:02:53.647Z,55.37
2018-01-10T03:05:22.072Z,51.60
2018-01-10T03:07:50.475Z,49.53
2018-01-10T03:10:18.838Z,50.00
2018-01-10T03:12:48.015Z,45.20
2018-01-10T03:15:17.172Z,49.27
2018-01-10T03:17:45.622Z,44.00
2018-01-10T03:20:14.047Z,58.03
2018-01-10T03:22:42.483Z,45.50
2018-01-10T03:25:10.934Z,41.63
2018-01-10T03:27:40.065Z,43.50
2018-01-10T03:30:08.516Z,49.00
2018-01-10T03:32:37.734Z,46.83
2018-01-10T03:35:06.171Z,47.13
2018-01-10T03:37:34.648Z,54.23
2018-01-10T03:40:03.016Z,44.23
2018-01-10T03:42:31.469Z,38.50
2018-01-10T03:44:59.926Z,44.77
2018-01-10T03:47:28.388Z,41.50
2018-01-10T03:49:57.600Z,43.13
2018-01-10T03:52:26.063Z,50.43
2018-01-10T03:54:54.535Z,48.03
2018-01-10T03:57:22.928Z,46.77
2018-01-10T03:59:51.284Z,48.63
2018-01-10T04:02:19.722Z,49.63
2018-01-10T04:04:48.201Z,46.40
2018-01-10T04:07:16.639Z,50.00
2018-01-10T04:09:45.010Z,44.30
2018-01-10T04:12:13.392Z,46.57
2018-01-10T04:14:41.878Z,45.90
2018-01-10T04:17:10.244Z,48.37
2018-01-10T04:19:38.670Z,47.37
2018-01-10T04:22:07.439Z,49.53
2018-01-10T04:24:36.572Z,50.27
2018-01-10T04:27:05.016Z,53.53
2018-01-10T04:29:34.234Z,41.83
2018-01-10T04:32:02.680Z,50.10
2018-01-10T04:34:31.138Z,48.27
2018-01-10T04:36:59.500Z,47.20
2018-01-10T04:39:27.900Z,54.90
2018-01-10T04:41:56.315Z,47.70
2018-01-10T04:44:25.449Z,46.30
2018-01-10T04:46:53.901Z,52.17
2018-01-10T04:49:22.290Z,40.37
2018-01-10T04:51:50.673Z,41.77
2018-01-10T04:54:19.112Z,49.03
2018-01-10T04:56:48.368Z,45.27
2018-01-10T04:59:16.743Z,45.90
2018-01-10T05:01:45.886Z,42.77
2018-01-10T05:04:14.314Z,45.60
2018-01-10T05:06:42.684Z,44.63
2018-01-10T05:09:11.123Z,48.90
2018-01-10T05:11:39.565Z,62.50
2018-01-10T05:14:07.917Z,51.13
2018-01-10T05:16:37.074Z,52.80
2018-01-10T05:19:05.520Z,43.20
2018-01-10T05:21:33.926Z,45.37
2018-01-10T05:24:02.729Z,47.77
2018-01-10T05:26:31.102Z,47.00
2018-01-10T05:28:59.491Z,39.13
2018-01-10T05:31:28.485Z,42.43
2018-01-10T05:33:57.612Z,47.40
2018-01-10T05:36:25.940Z,51.40
2018-01-10T05:38:54.386Z,48.53
2018-01-10T05:41:22.798Z,51.77
2018-01-10T05:43:51.206Z,55.77
2018-01-10T05:46:20.406Z,57.27
2018-01-10T05:48:49.510Z,47.70
2018-01-10T05:51:18.704Z,47.77
2018-01-10T05:53:47.065Z,46.93
2018-01-10T05:56:15.461Z,48.40
2018-01-10T05:58:44.604Z,45.67
2018-01-10T06:01:12.943Z,44.50
2018-01-10T06:03:42.129Z,45.93
2018-01-10T06:06:11.304Z,44.63
2018-01-10T06:08:39.746Z,46.63
2018-01-10T06:11:08.079Z,50.97
2018-01-10T06:13:36.400Z,48.83
2018-01-10T06:16:04.818Z,43.83
2018-01-10T06:18:33.219Z,38.93
2018-01-10T06:21:02.421Z,46.27
2018-01-10T06:23:31.590Z,44.10
2018-01-10T06:26:00.035Z,45.17
2018-01-10T06:28:28.420Z,51.33
2018-01-10T06:30:56.756Z,45.13
2018-01-10T06:33:25.875Z,41.03
2018-01-10T06:35:54.682Z,46.43
2018-01-10T06:38:23.048Z,48.60
2018-01-10T06:40:51.375Z,40.07
2018-01-10T06:43:19.771Z,45.70
2018-01-10T06:45:48.962Z,44.70
2018-01-10T06:48:17.320Z,43.73
2018-01-10T06:50:45.652Z,46.93
2018-01-10T06:53:14.011Z,46.17
2018-01-10T06:55:43.140Z,47.97
2018-01-10T06:58:11.530Z,52.13
2018-01-10T07:00:39.872Z,49.50
2018-01-10T07:03:09.055Z,45.90
2018-01-10T07:05:38.184Z,50.00
2018-01-10T07:08:06.508Z,42.07
2018-01-10T07:10:34.922Z,51.80
2018-01-10T07:13:03.358Z,45.43
2018-01-10T07:15:31.664Z,47.77
2018-01-10T07:18:00.788Z,41.43
2018-01-10T07:20:29.196Z,47.40
2018-01-10T07:22:57.532Z,47.70
2018-01-10T07:25:26.730Z,45.27
2018-01-10T07:27:55.060Z,40.27
2018-01-10T07:30:23.430Z,46.93
2018-01-10T07:32:51.787Z,41.63
2018-01-10T07:35:20.172Z,45.40
2018-01-10T07:37:48.548Z,43.50
2018-01-10T07:40:16.934Z,45.73
2018-01-10T07:42:45.330Z,47.17
2018-01-10T07:45:13.713Z,48.90
2018-01-10T07:47:42.099Z,48.37
2018-01-10T07:50:10.469Z,38.87
2018-01-10T07:52:38.867Z,45.33
2018-01-10T07:55:07.278Z,46.43
2018-01-10T07:57:35.729Z,51.57
2018-01-10T08:00:04.139Z,46.33
2018-01-10T08:02:32.490Z,60.37
2018-01-10T08:05:00.848Z,41.07
2018-01-10T08:07:29.234Z,42.93
2018-01-10T08:09:57.571Z,44.17
2018-01-10T08:12:25.915Z,43.67
2018-01-10T08:14:54.292Z,40.83
2018-01-10T08:17:22.707Z,46.80
2018-01-10T08:19:51.166Z,43.03
2018-01-10T08:22:19.595Z,39.87
2018-01-10T08:24:48.026Z,53.00
2018-01-10T08:27:17.128Z,40.93
2018-01-10T08:29:46.278Z,48.40
2018-01-10T08:32:14.655Z,47.27
2018-01-10T08:34:43.042Z,44.90
2018-01-10T08:37:11.472Z,47.67
2018-01-10T08:39:39.809Z,45.03
2018-01-10T08:42:08.595Z,40.87
2018-01-10T08:44:36.987Z,43.90
2018-01-10T08:47:06.168Z,39.33
2018-01-10T08:49:34.561Z,41.37
2018-01-10T08:52:03.737Z,39.40
2018-01-10T08:54:32.113Z,43.53
2018-01-10T08:57:00.498Z,38.93
2018-01-10T08:59:28.924Z,41.17
2018-01-10T09:01:57.300Z,36.23
2018-01-10T09:04:26.520Z,36.47
2018-01-10T09:06:54.889Z,37.13
2018-01-10T09:09:23.252Z,35.97
2018-01-10T09:11:52.434Z,34.03
2018-01-10T09:14:21.607Z,35.73
2018-01-10T09:16:50.020Z,37.53
2018-01-10T09:19:18.395Z,39.90
2018-01-10T09:21:47.555Z,37.50
2018-01-10T09:24:15.898Z,37.97
2018-01-10T09:26:44.278Z,30.77
2018-01-10T09:29:12.676Z,35.20
2018-01-10T09:31:41.018Z,30.50
2018-01-10T09:34:09.368Z,34.57
2018-01-10T09:36:37.773Z,31.93
2018-01-10T09:39:06.161Z,38.97
2018-01-10T09:41:34.588Z,32.93
2018-01-10T09:44:02.924Z,36.10
2018-01-10T09:46:31.243Z,30.73
2018-01-10T09:48:59.677Z,30.63
2018-01-10T09:51:28.098Z,36.80
2018-01-10T09:53:56.524Z,29.27
2018-01-10T09:56:24.956Z,33.13
2018-01-10T09:58:53.316Z,39.57
2018-01-10T10:01:21.648Z,32.97
2018-01-10T10:03:50.008Z,27.57
2018-01-10T10:06:18.337Z,33.23
2018-01-10T10:08:46.664Z,29.97
2018-01-10T10:11:15.024Z,32.47
2018-01-10T10:13:43.418Z,38.40
2018-01-10T10:16:11.875Z,41.40
2018-01-10T10:18:40.222Z,45.60
2018-01-10T10:21:08.616Z,41.73
2018-01-10T10:23:36.971Z,35.67
2018-01-10T10:26:06.120Z,35.50
2018-01-10T10:28:34.557Z,35.13
2018-01-10T10:31:02.885Z,31.30
2018-01-10T10:33:31.275Z,30.93
2018-01-10T10:35:59.660Z,29.73
2018-01-10T10:38:28.000Z,33.23
2018-01-10T10:40:56.418Z,29.80
2018-01-10T10:43:24.827Z,29.40
2018-01-10T10:45:53.212Z,38.47
2018-01-10T10:48:21.607Z,30.43
2018-01-10T10:50:49.973Z,32.33
2018-01-10T10:53:18.362Z,29.70
2018-01-10T10:55:46.762Z,34.03
2018-01-10T10:58:15.243Z,27.20
2018-01-10T11:00:43.651Z,31.57
2018-01-10T11:03:12.542Z,30.00
2018-01-10T11:05:41.715Z,26.30
2018-01-10T11:08:10.068Z,30.90
2018-01-10T11:10:38.425Z,28.50
2018-01-10T11:13:07.561Z,24.83
2018-01-10T11:15:35.962Z,25.80
2018-01-10T11:18:04.362Z,25.20
2018-01-10T11:20:33.579Z,25.50
2018-01-10T11:23:01.974Z,27.07
2018-01-10T11:25:30.382Z,26.07
2018-01-10T11:27:58.756Z,27.03
2018-01-10T11:30:27.108Z,29.83
2018-01-10T11:32:55.494Z,23.80
2018-01-10T11:35:23.907Z,30.97
2018-01-10T11:37:52.347Z,22.23
2018-01-10T11:40:21.591Z,26.47
2018-01-10T11:42:49.991Z,24.77
2018-01-10T11:45:19.125Z,21.07
2018-01-10T11:47:47.542Z,24.83
2018-01-10T11:50:15.898Z,25.67
2018-01-10T11:52:44.256Z,20.87
2018-01-10T11:55:12.659Z,27.53
2018-01-10T11:57:41.079Z,26.30
2018-01-10T12:00:10.277Z,24.00
2018-01-10T12:02:39.408Z,25.70
2018-01-10T12:05:07.790Z,25.83
2018-01-10T12:07:36.205Z,23.97
2018-01-10T12:10:04.548Z,25.60
2018-01-10T12:12:32.884Z,22.13
2018-01-10T12:15:01.204Z,24.57
2018-01-10T12:17:29.617Z,26.57
2018-01-10T12:19:57.975Z,23.10
2018-01-10T12:22:26.329Z,23.10
2018-01-10T12:24:55.460Z,27.90
2018-01-10T12:27:23.783Z,22.53
2018-01-10T12:29:52.111Z,24.20
2018-01-10T12:32:20.493Z,18.00
2018-01-10T12:34:48.821Z,18.80
2018-01-10T12:37:17.171Z,19.73
2018-01-10T12:39:45.536Z,16.73
2018-01-10T12:42:13.926Z,21.43
2018-01-10T12:44:42.296Z,21.10
2018-01-10T12:47:10.694Z,17.10
2018-01-10T12:49:39.036Z,18.23
2018-01-10T12:52:07.462Z,16.20
2018-01-10T12:54:36.670Z,21.37
2018-01-10T12:57:05.820Z,16.97
2018-01-10T12:59:34.217Z,15.27
2018-01-10T13:02:02.572Z,18.40
2018-01-10T13:04:30.944Z,14.17
2018-01-10T13:06:59.272Z,16.87
2018-01-10T13:09:27.641Z,15.47
2018-01-10T13:11:56.019Z,15.80
2018-01-10T13:14:24.435Z,15.57
2018-01-10T13:16:52.795Z,14.13
2018-01-10T13:19:21.982Z,17.13
2018-01-10T13:21:51.097Z,17.73
2018-01-10T13:24:20.291Z,14.57
2018-01-10T13:26:48.664Z,14.93
2018-01-10T13:29:17.096Z,16.80
2018-01-10T13:31:45.571Z,16.90
2018-01-10T13:34:13.909Z,18.30
2018-01-10T13:36:43.052Z,17.13
2018-01-10T13:39:11.407Z,13.10
2018-01-10T13:41:39.757Z,23.50
2018-01-10T13:44:08.895Z,17.47
2018-01-10T13:46:37.317Z,16.00
2018-01-10T13:49:05.744Z,14.80
2018-01-10T13:51:34.113Z,18.40
2018-01-10T13:54:02.512Z,17.70
2018-01-10T13:56:30.876Z,15.60
2018-01-10T13:58:59.560Z,19.30
2018-01-10T14:01:27.924Z,13.07
2018-01-10T14:03:57.107Z,11.67
2018-01-10T14:06:26.244Z,15.33
2018-01-10T14:08:54.638Z,12.20
2018-01-10T14:11:23.010Z,10.30
2018-01-10T14:13:51.336Z,10.27
2018-01-10T14:16:20.684Z,11.07
2018-01-10T14:18:49.041Z,14.40
2018-01-10T14:21:18.201Z,12.00
2018-01-10T14:23:46.623Z,11.40
2018-01-10T14:26:15.798Z,10.57
2018-01-10T14:28:44.921Z,11.10
2018-01-10T14:31:13.243Z,8.03
2018-01-10T14:33:41.576Z,9.80
2018-01-10T14:36:09.996Z,10.87
2018-01-10T14:38:38.435Z,6.60
2018-01-10T14:41:06.824Z,7.97
2018-01-10T14:43:35.155Z,6.03
2018-01-10T14:46:03.501Z,6.30
2018-01-10T14:48:31.819Z,6.93
2018-01-10T14:51:00.222Z,6.37
2018-01-10T14:53:28.545Z,6.77
2018-01-10T14:55:56.966Z,9.40
2018-01-10T14:58:25.410Z,5.63
2018-01-10T15:00:53.817Z,11.10
2018-01-10T15:03:22.152Z,6.50
2018-01-10T15:05:50.838Z,9.90
2018-01-10T15:08:19.191Z,7.07
2018-01-10T15:10:47.512Z,8.20
2018-01-10T15:13:15.842Z,7.67
2018-01-10T15:15:44.187Z,6.23
2018-01-10T15:18:12.535Z,7.83
2018-01-10T15:20:40.855Z,7.53
2018-01-10T15:23:09.944Z,8.03
2018-01-10T15:25:39.055Z,5.67
2018-01-10T15:28:07.379Z,6.47
2018-01-10T15:30:35.733Z,7.23
2018-01-10T15:33:04.087Z,6.57
2018-01-10T15:35:33.182Z,7.10
2018-01-10T15:38:01.509Z,6.90
2018-01-10T15:40:29.878Z,8.40
2018-01-10T15:42:58.219Z,6.53
2018-01-10T15:45:27.323Z,5.50
2018-01-10T15:47:55.676Z,6.40
2018-01-10T15:50:24.023Z,8.63
2018-01-10T15:52:52.379Z,6.40
2018-01-10T15:55:20.713Z,6.33
2018-01-10T15:57:49.791Z,6.77
2018-01-10T16:00:18.136Z,7.37
2018-01-10T16:02:46.456Z,6.90
2018-01-10T16:05:15.566Z,7.10
2018-01-10T16:07:43.896Z,6.73
2018-01-10T16:10:12.256Z,6.03
2018-01-10T16:12:40.580Z,7.80
2018-01-10T16:15:08.932Z,6.37
2018-01-10T16:17:37.294Z,6.20
2018-01-10T16:20:05.607Z,7.23
2018-01-10T16:22:33.976Z,9.27
2018-01-10T16:25:02.297Z,7.90
2018-01-10T16:27:30.652Z,7.37
2018-01-10T16:29:59.723Z,8.20
2018-01-10T16:32:28.058Z,7.87
2018-01-10T16:34:56.385Z,12.90
2018-01-10T16:37:24.760Z,7.50
2018-01-10T16:39:53.115Z,7.30
2018-01-10T16:42:21.438Z,6.57
2018-01-10T16:44:50.579Z,6.63
2018-01-10T16:47:18.895Z,19.00
2018-01-10T16:49:47.252Z,8.93
2018-01-10T16:52:15.591Z,7.87
2018-01-10T16:54:43.912Z,7.63
2018-01-10T16:57:12.276Z,7.50
2018-01-10T16:59:40.612Z,8.30
2018-01-10T17:02:09.731Z,8.43
2018-01-10T17:04:38.051Z,8.73
2018-01-10T17:07:06.408Z,8.80
2018-01-10T17:09:34.740Z,7.37
2018-01-10T17:12:03.828Z,11.00
2018-01-10T17:14:32.187Z,9.30
2018-01-10T17:17:00.501Z,7.27
2018-01-10T17:19:29.628Z,8.47
2018-01-10T17:21:57.959Z,7.43
2018-01-10T17:24:26.284Z,9.93
2018-01-10T17:26:54.635Z,7.33
2018-01-10T17:29:22.960Z,7.10
2018-01-10T17:31:51.315Z,7.40
2018-01-10T17:34:19.641Z,6.83
2018-01-10T17:36:47.966Z,7.40
2018-01-10T17:39:16.308Z,8.77
2018-01-10T17:41:46.352Z,10.27
2018-01-10T17:44:14.681Z,7.73
2018-01-10T17:46:43.084Z,8.13
2018-01-10T17:49:12.317Z,8.00
2018-01-10T17:51:40.694Z,8.57
2018-01-10T17:54:09.072Z,9.77
2018-01-10T17:56:37.500Z,11.53
2018-01-10T17:59:06.681Z,9.37
2018-01-10T18:01:35.066Z,8.73
2018-01-10T18:04:03.476Z,8.63
2018-01-10T18:06:32.692Z,9.10
2018-01-10T18:09:01.097Z,11.40
2018-01-10T18:11:29.547Z,11.77
2018-01-10T18:13:58.093Z,9.03
2018-01-10T18:16:27.466Z,9.33
2018-01-10T18:18:56.036Z,10.07
2018-01-10T18:21:24.722Z,9.93
2018-01-10T18:23:53.298Z,8.73
2018-01-10T18:26:21.877Z,9.17
2018-01-10T18:28:50.528Z,10.00
2018-01-10T18:31:19.115Z,10.70
2018-01-10T18:33:47.612Z,9.73
2018-01-10T18:36:16.187Z,15.60
2018-01-10T18:38:44.766Z,10.97
2018-01-10T18:41:13.339Z,12.00
2018-01-10T18:43:41.935Z,11.43
2018-01-10T18:46:10.598Z,9.63
2018-01-10T18:48:39.233Z,11.37
2018-01-10T18:51:07.886Z,13.50
2018-01-10T18:53:36.585Z,8.50
2018-01-10T18:56:05.218Z,8.40
2018-01-10T18:58:33.902Z,10.73
2018-01-10T19:01:03.399Z,10.53
2018-01-10T19:03:32.026Z,10.33
2018-01-10T19:06:00.645Z,10.83
2018-01-10T19:08:29.300Z,8.40
2018-01-10T19:10:57.940Z,9.60
2018-01-10T19:13:26.599Z,8.30
2018-01-10T19:15:55.310Z,9.77
2018-01-10T19:18:23.882Z,13.90
2018-01-10T19:20:52.446Z,11.83
2018-01-10T19:23:20.988Z,11.03
2018-01-10T19:25:49.394Z,10.07
2018-01-10T19:28:18.716Z,10.50
2018-01-10T19:33:21.628Z,11.90
2018-01-10T19:35:49.999Z,16.20
2018-01-10T19:38:18.464Z,14.43
2018-01-10T19:40:47.580Z,13.37
2018-01-10T19:43:15.917Z,13.20
2018-01-10T19:45:44.284Z,13.07
2018-01-10T19:48:12.665Z,15.33
2018-01-10T19:50:41.000Z,15.87
2018-01-10T19:53:09.377Z,14.50
2018-01-10T19:55:37.836Z,18.27
2018-01-10T19:58:06.225Z,14.47
2018-01-10T20:00:34.592Z,13.73
2018-01-10T20:03:03.688Z,14.80
2018-01-10T20:05:32.818Z,16.93
2018-01-10T20:08:01.157Z,13.47
2018-01-10T20:10:30.252Z,12.87
2018-01-10T20:12:59.395Z,14.70
2018-01-10T20:15:27.725Z,14.87
2018-01-10T20:17:56.069Z,17.43
2018-01-10T20:20:24.420Z,14.70
2018-01-10T20:22:52.738Z,16.17
2018-01-10T20:25:21.100Z,14.53
2018-01-10T20:27:49.441Z,13.93
2018-01-10T20:30:17.795Z,14.57
2018-01-10T20:32:46.922Z,15.07
2018-01-10T20:35:15.269Z,17.50
2018-01-10T20:37:44.421Z,21.03
2018-01-10T20:40:12.747Z,20.33
2018-01-10T20:42:41.120Z,29.40
2018-01-10T20:45:10.216Z,30.43
2018-01-10T20:47:39.376Z,33.30
2018-01-10T20:50:07.729Z,39.10
2018-01-10T20:52:36.076Z,37.60
2018-01-10T20:55:05.192Z,28.87
2018-01-10T20:57:33.560Z,39.37
2018-01-10T21:00:02.667Z,39.17
2018-01-10T21:02:31.038Z,39.70
2018-01-10T21:04:59.401Z,33.73
2018-01-10T21:07:27.736Z,34.50
2018-01-10T21:09:56.110Z,32.70
2018-01-10T21:12:25.120Z,29.70
2018-01-10T21:14:53.465Z,30.90
2018-01-10T21:17:21.816Z,28.23
2018-01-10T21:19:50.180Z,37.17
2018-01-10T21:22:19.268Z,27.80
2018-01-10T21:24:47.597Z,27.53
2018-01-10T21:27:15.972Z,37.83
2018-01-10T21:29:44.309Z,27.23
2018-01-10T21:32:13.406Z,30.30
2018-01-10T21:34:42.539Z,32.20
2018-01-10T21:37:10.872Z,36.40
2018-01-10T21:39:39.208Z,29.60
2018-01-10T21:42:07.583Z,29.23
2018-01-10T21:44:35.912Z,25.40
2018-01-10T21:47:05.079Z,22.63
2018-01-10T21:49:33.451Z,28.80
2018-01-10T21:52:01.861Z,20.97
2018-01-10T21:54:30.230Z,22.73
2018-01-10T21:56:58.600Z,20.87
2018-01-10T21:59:26.972Z,24.03
2018-01-10T22:01:55.292Z,21.50
2018-01-10T22:04:23.624Z,17.27
2018-01-10T22:06:51.976Z,22.23
2018-01-10T22:09:21.187Z,29.83
2018-01-10T22:11:49.536Z,21.97
2018-01-10T22:14:17.906Z,21.33
2018-01-10T22:16:46.237Z,19.80
2018-01-10T22:19:14.595Z,21.40
2018-01-10T22:21:42.933Z,20.00
2018-01-10T22:24:12.040Z,22.27
2018-01-10T22:26:41.161Z,21.70
2018-01-10T22:29:09.496Z,26.37
2018-01-10T22:31:37.856Z,26.80
2018-01-10T22:34:06.228Z,21.43
2018-01-10T22:36:34.568Z,20.53
2018-01-10T22:39:02.888Z,19.37
2018-01-10T22:41:31.265Z,19.20
2018-01-10T22:43:59.588Z,19.23
2018-01-10T22:46:27.927Z,21.10
2018-01-10T22:48:56.284Z,28.83
2018-01-10T22:51:24.600Z,17.33
2018-01-10T22:53:52.964Z,23.77
2018-01-10T22:56:21.283Z,23.43
2018-01-10T22:58:49.628Z,24.67
2018-01-10T23:01:17.985Z,18.00
2018-01-10T23:03:46.333Z,20.40
2018-01-10T23:06:14.670Z,18.37
2018-01-10T23:08:43.805Z,22.00
2018-01-10T23:11:12.121Z,22.57
2018-01-10T23:13:40.445Z,17.10
2018-01-10T23:16:08.800Z,18.67
2018-01-10T23:18:37.895Z,20.13
2018-01-10T23:21:07.045Z,20.63
2018-01-10T23:23:35.392Z,18.10
2018-01-10T23:26:03.720Z,18.27
2018-01-10T23:28:32.073Z,22.67
2018-01-10T23:31:00.396Z,20.50
2018-01-10T23:33:28.747Z,20.83
2018-01-10T23:35:57.083Z,21.10
2018-01-10T23:38:25.403Z,19.80
2018-01-10T23:40:53.759Z,19.10
2018-01-10T23:43:22.109Z,23.83
2018-01-10T23:45:50.440Z,25.10
2018-01-10T23:48:18.792Z,21.60
2018-01-10T23:50:47.112Z,19.70
2018-01-10T23:53:15.469Z,22.53
2018-01-10T23:55:43.840Z,19.10
2018-01-10T23:58:12.187Z,21.80
